Joussard, Canada
Current Conditions -  °F | °C
As of 5:00 AM on Saturday 25 Oct 2014 (Local Time) from CYZH Reporting Station
Clear Clear  
Wind Chill: 28°   Ceiling: Unl
Heat Index: 28°   Visibility: 9mi
Dew Point: 27°   Wind: 2mph
Humidity: 93%   Direction: NA
Pressure: 29.97"   Gusts: NA
Location:  55.37°N, 115.93°W
Report Text: CYZH 251100Z AUTO VRB02KT 9SM CLR M02/M03 A2997 RMK SLP175
Loading
Personal Weather Stations






























Interactive Weather Map
Tropical Storm Tracking
New forecast layout! Learn more

10-Day Weather Forecast

Advertisements
Track Severe Weather on mobile